sensor_id;sensor_type;location;lat;lon;timestamp;P1;durP1;ratioP1;P2;durP2;ratioP2
18399;SDS011;9326;49.468;11.008;2023-02-08T00:01:45;18.73;;;12.20;;
18399;SDS011;9326;49.468;11.008;2023-02-08T00:04:12;21.83;;;12.17;;
18399;SDS011;9326;49.468;11.008;2023-02-08T00:06:39;20.23;;;11.50;;
18399;SDS011;9326;49.468;11.008;2023-02-08T00:09:06;18.97;;;12.30;;
18399;SDS011;9326;49.468;11.008;2023-02-08T00:11:35;19.67;;;12.77;;
18399;SDS011;9326;49.468;11.008;2023-02-08T00:14:02;24.10;;;14.90;;
18399;SDS011;9326;49.468;11.008;2023-02-08T00:16:29;20.10;;;14.57;;
18399;SDS011;9326;49.468;11.008;2023-02-08T00:18:56;23.47;;;14.07;;
18399;SDS011;9326;49.468;11.008;2023-02-08T00:21:23;17.73;;;11.40;;
18399;SDS011;9326;49.468;11.008;2023-02-08T00:23:50;19.70;;;11.93;;
18399;SDS011;9326;49.468;11.008;2023-02-08T00:26:17;18.90;;;12.27;;
18399;SDS011;9326;49.468;11.008;2023-02-08T00:28:45;19.77;;;11.10;;
18399;SDS011;9326;49.468;11.008;2023-02-08T00:31:12;19.10;;;11.97;;
18399;SDS011;9326;49.468;11.008;2023-02-08T00:33:39;18.07;;;11.80;;
18399;SDS011;9326;49.468;11.008;2023-02-08T00:36:07;20.07;;;11.60;;
18399;SDS011;9326;49.468;11.008;2023-02-08T00:38:34;19.33;;;12.13;;
18399;SDS011;9326;49.468;11.008;2023-02-08T00:41:01;19.67;;;11.67;;
18399;SDS011;9326;49.468;11.008;2023-02-08T00:43:28;16.73;;;10.77;;
18399;SDS011;9326;49.468;11.008;2023-02-08T00:45:57;18.53;;;12.13;;
18399;SDS011;9326;49.468;11.008;2023-02-08T00:48:24;16.47;;;10.50;;
18399;SDS011;9326;49.468;11.008;2023-02-08T00:50:59;20.57;;;12.53;;
18399;SDS011;9326;49.468;11.008;2023-02-08T00:53:26;17.93;;;10.10;;
18399;SDS011;9326;49.468;11.008;2023-02-08T00:55:53;19.40;;;11.93;;
18399;SDS011;9326;49.468;11.008;2023-02-08T00:58:20;19.00;;;10.83;;
18399;SDS011;9326;49.468;11.008;2023-02-08T06:01:54;19.37;;;11.77;;
18399;SDS011;9326;49.468;11.008;2023-02-08T06:04:21;20.83;;;11.47;;
18399;SDS011;9326;49.468;11.008;2023-02-08T06:06:48;19.33;;;10.40;;
18399;SDS011;9326;49.468;11.008;2023-02-08T06:09:15;20.13;;;10.97;;
18399;SDS011;9326;49.468;11.008;2023-02-08T06:11:42;18.40;;;11.93;;
18399;SDS011;9326;49.468;11.008;2023-02-08T06:14:09;20.77;;;10.63;;
18399;SDS011;9326;49.468;11.008;2023-02-08T06:16:36;19.73;;;12.13;;
18399;SDS011;9326;49.468;11.008;2023-02-08T06:19:05;19.77;;;11.90;;
18399;SDS011;9326;49.468;11.008;2023-02-08T06:21:32;20.77;;;10.87;;
18399;SDS011;9326;49.468;11.008;2023-02-08T06:23:59;22.20;;;12.77;;
18399;SDS011;9326;49.468;11.008;2023-02-08T06:26:27;19.80;;;10.93;;
18399;SDS011;9326;49.468;11.008;2023-02-08T06:28:54;19.00;;;10.60;;
18399;SDS011;9326;49.468;11.008;2023-02-08T06:31:21;20.63;;;11.30;;
18399;SDS011;9326;49.468;11.008;2023-02-08T06:33:48;21.07;;;13.47;;
18399;SDS011;9326;49.468;11.008;2023-02-08T06:36:17;23.13;;;13.20;;
18399;SDS011;9326;49.468;11.008;2023-02-08T06:38:44;23.27;;;12.33;;
18399;SDS011;9326;49.468;11.008;2023-02-08T06:41:11;24.50;;;14.80;;
18399;SDS011;9326;49.468;11.008;2023-02-08T06:43:38;19.53;;;13.37;;
18399;SDS011;9326;49.468;11.008;2023-02-08T06:46:05;25.93;;;13.10;;
18399;SDS011;9326;49.468;11.008;2023-02-08T06:48:32;27.20;;;15.07;;
18399;SDS011;9326;49.468;11.008;2023-02-08T06:50:59;23.23;;;13.07;;
18399;SDS011;9326;49.468;11.008;2023-02-08T06:53:28;24.57;;;14.70;;
18399;SDS011;9326;49.468;11.008;2023-02-08T06:55:55;23.43;;;12.40;;
18399;SDS011;9326;49.468;11.008;2023-02-08T06:58:22;25.47;;;11.67;;
18399;SDS011;9326;49.468;11.008;2023-02-08T07:00:49;24.40;;;13.30;;
18399;SDS011;9326;49.468;11.008;2023-02-08T07:03:16;22.57;;;13.53;;
18399;SDS011;9326;49.468;11.008;2023-02-08T07:05:43;23.40;;;13.43;;
18399;SDS011;9326;49.468;11.008;2023-02-08T07:08:10;22.70;;;13.60;;
18399;SDS011;9326;49.468;11.008;2023-02-08T07:10:38;25.07;;;13.83;;
18399;SDS011;9326;49.468;11.008;2023-02-08T07:13:05;22.60;;;13.53;;
18399;SDS011;9326;49.468;11.008;2023-02-08T07:15:32;24.17;;;13.90;;
18399;SDS011;9326;49.468;11.008;2023-02-08T07:17:59;24.00;;;13.43;;
18399;SDS011;9326;49.468;11.008;2023-02-08T07:20:27;23.40;;;15.10;;
18399;SDS011;9326;49.468;11.008;2023-02-08T07:22:53;22.80;;;14.53;;
18399;SDS011;9326;49.468;11.008;2023-02-08T07:25:20;30.53;;;18.30;;
18399;SDS011;9326;49.468;11.008;2023-02-08T07:27:49;27.73;;;15.87;;
18399;SDS011;9326;49.468;11.008;2023-02-08T07:30:16;28.13;;;16.60;;
18399;SDS011;9326;49.468;11.008;2023-02-08T07:32:43;28.60;;;16.23;;
18399;SDS011;9326;49.468;11.008;2023-02-08T07:35:10;30.37;;;17.30;;
18399;SDS011;9326;49.468;11.008;2023-02-08T07:37:37;24.73;;;14.20;;
18399;SDS011;9326;49.468;11.008;2023-02-08T07:40:04;25.83;;;13.73;;
18399;SDS011;9326;49.468;11.008;2023-02-08T07:42:31;28.17;;;15.43;;
18399;SDS011;9326;49.468;11.008;2023-02-08T07:45:00;27.83;;;15.87;;
18399;SDS011;9326;49.468;11.008;2023-02-08T07:47:28;26.47;;;16.13;;
18399;SDS011;9326;49.468;11.008;2023-02-08T07:49:55;28.80;;;15.50;;
18399;SDS011;9326;49.468;11.008;2023-02-08T07:52:22;24.53;;;15.90;;
18399;SDS011;9326;49.468;11.008;2023-02-08T07:54:49;30.80;;;16.93;;
18399;SDS011;9326;49.468;11.008;2023-02-08T07:57:16;26.47;;;16.37;;
18399;SDS011;9326;49.468;11.008;2023-02-08T07:59:45;28.90;;;16.30;;
18399;SDS011;9326;49.468;11.008;2023-02-08T08:02:14;29.53;;;17.00;;
18399;SDS011;9326;49.468;11.008;2023-02-08T08:04:41;30.37;;;16.60;;
18399;SDS011;9326;49.468;11.008;2023-02-08T08:07:08;29.57;;;16.27;;
18399;SDS011;9326;49.468;11.008;2023-02-08T08:09:35;30.50;;;16.70;;
18399;SDS011;9326;49.468;11.008;2023-02-08T08:12:02;25.47;;;15.43;;
18399;SDS011;9326;49.468;11.008;2023-02-08T08:14:29;28.57;;;16.73;;
18399;SDS011;9326;49.468;11.008;2023-02-08T08:16:56;27.07;;;15.80;;
18399;SDS011;9326;49.468;11.008;2023-02-08T08:19:25;27.87;;;16.67;;
18399;SDS011;9326;49.468;11.008;2023-02-08T08:21:52;28.17;;;15.63;;
18399;SDS011;9326;49.468;11.008;2023-02-08T08:24:19;27.60;;;15.57;;
18399;SDS011;9326;49.468;11.008;2023-02-08T08:26:46;31.77;;;17.17;;
18399;SDS011;9326;49.468;11.008;2023-02-08T08:29:13;29.20;;;17.30;;
18399;SDS011;9326;49.468;11.008;2023-02-08T08:31:41;27.53;;;16.87;;
18399;SDS011;9326;49.468;11.008;2023-02-08T08:34:08;30.47;;;17.37;;
18399;SDS011;9326;49.468;11.008;2023-02-08T08:36:37;29.70;;;17.03;;
18399;SDS011;9326;49.468;11.008;2023-02-08T08:39:03;30.53;;;17.30;;
18399;SDS011;9326;49.468;11.008;2023-02-08T08:41:30;28.40;;;15.77;;
18399;SDS011;9326;49.468;11.008;2023-02-08T08:43:58;26.47;;;16.03;;
18399;SDS011;9326;49.468;11.008;2023-02-08T08:46:25;27.83;;;16.47;;
18399;SDS011;9326;49.468;11.008;2023-02-08T08:48:52;27.03;;;17.30;;
18399;SDS011;9326;49.468;11.008;2023-02-08T08:51:19;28.67;;;16.57;;
18399;SDS011;9326;49.468;11.008;2023-02-08T08:53:47;30.97;;;17.53;;
18399;SDS011;9326;49.468;11.008;2023-02-08T08:56:14;24.43;;;14.37;;
18399;SDS011;9326;49.468;11.008;2023-02-08T08:58:41;27.60;;;17.40;;
18399;SDS011;9326;49.468;11.008;2023-02-08T09:01:08;27.60;;;16.00;;
18399;SDS011;9326;49.468;11.008;2023-02-08T09:03:37;29.17;;;16.53;;
18399;SDS011;9326;49.468;11.008;2023-02-08T09:06:04;26.63;;;15.93;;
18399;SDS011;9326;49.468;11.008;2023-02-08T09:08:31;26.00;;;15.37;;
18399;SDS011;9326;49.468;11.008;2023-02-08T09:11:04;25.73;;;15.27;;
18399;SDS011;9326;49.468;11.008;2023-02-08T09:13:31;25.40;;;14.93;;
18399;SDS011;9326;49.468;11.008;2023-02-08T09:15:58;26.53;;;15.97;;
18399;SDS011;9326;49.468;11.008;2023-02-08T09:18:25;26.27;;;15.57;;
18399;SDS011;9326;49.468;11.008;2023-02-08T09:20:52;26.93;;;16.70;;
18399;SDS011;9326;49.468;11.008;2023-02-08T09:23:19;26.90;;;15.53;;
18399;SDS011;9326;49.468;11.008;2023-02-08T09:25:46;24.87;;;14.10;;
18399;SDS011;9326;49.468;11.008;2023-02-08T09:28:14;23.40;;;14.27;;
18399;SDS011;9326;49.468;11.008;2023-02-08T09:30:41;23.43;;;14.37;;
18399;SDS011;9326;49.468;11.008;2023-02-08T09:33:09;25.97;;;14.93;;
18399;SDS011;9326;49.468;11.008;2023-02-08T09:35:36;22.07;;;14.57;;
18399;SDS011;9326;49.468;11.008;2023-02-08T09:38:03;28.23;;;16.23;;
18399;SDS011;9326;49.468;11.008;2023-02-08T09:40:32;26.97;;;15.30;;
18399;SDS011;9326;49.468;11.008;2023-02-08T09:43:03;24.93;;;14.90;;
18399;SDS011;9326;49.468;11.008;2023-02-08T09:45:35;24.63;;;14.83;;
18399;SDS011;9326;49.468;11.008;2023-02-08T09:48:08;23.67;;;14.20;;
18399;SDS011;9326;49.468;11.008;2023-02-08T09:50:38;23.50;;;14.13;;
18399;SDS011;9326;49.468;11.008;2023-02-08T09:53:09;24.53;;;15.27;;
18399;SDS011;9326;49.468;11.008;2023-02-08T09:55:40;21.80;;;14.97;;
18399;SDS011;9326;49.468;11.008;2023-02-08T09:58:12;23.27;;;13.90;;
18399;SDS011;9326;49.468;11.008;2023-02-08T10:00:43;26.60;;;15.37;;
18399;SDS011;9326;49.468;11.008;2023-02-08T10:03:24;25.00;;;15.87;;
18399;SDS011;9326;49.468;11.008;2023-02-08T10:05:53;20.53;;;13.83;;
18399;SDS011;9326;49.468;11.008;2023-02-08T10:08:21;23.47;;;13.97;;
18399;SDS011;9326;49.468;11.008;2023-02-08T10:10:50;21.93;;;12.47;;
18399;SDS011;9326;49.468;11.008;2023-02-08T10:13:23;23.23;;;13.97;;
18399;SDS011;9326;49.468;11.008;2023-02-08T10:15:57;15.23;;;8.90;;
18399;SDS011;9326;49.468;11.008;2023-02-08T10:18:29;23.13;;;13.13;;
18399;SDS011;9326;49.468;11.008;2023-02-08T10:21:02;21.27;;;13.30;;
18399;SDS011;9326;49.468;11.008;2023-02-08T10:23:42;23.90;;;13.37;;
18399;SDS011;9326;49.468;11.008;2023-02-08T10:26:12;20.83;;;11.93;;
18399;SDS011;9326;49.468;11.008;2023-02-08T10:28:44;21.93;;;14.00;;
18399;SDS011;9326;49.468;11.008;2023-02-08T10:31:16;21.83;;;14.10;;
18399;SDS011;9326;49.468;11.008;2023-02-08T10:33:47;8.13;;;4.63;;
18399;SDS011;9326;49.468;11.008;2023-02-08T10:36:18;22.07;;;13.47;;
18399;SDS011;9326;49.468;11.008;2023-02-08T10:38:46;22.97;;;13.87;;
18399;SDS011;9326;49.468;11.008;2023-02-08T10:41:14;22.10;;;13.20;;
18399;SDS011;9326;49.468;11.008;2023-02-08T10:43:43;21.73;;;13.43;;
18399;SDS011;9326;49.468;11.008;2023-02-08T10:46:14;22.20;;;13.50;;
18399;SDS011;9326;49.468;11.008;2023-02-08T10:48:47;22.97;;;12.77;;
18399;SDS011;9326;49.468;11.008;2023-02-08T10:51:19;18.67;;;12.10;;
18399;SDS011;9326;49.468;11.008;2023-02-08T10:53:46;16.07;;;10.47;;
18399;SDS011;9326;49.468;11.008;2023-02-08T10:56:20;16.73;;;10.40;;
18399;SDS011;9326;49.468;11.008;2023-02-08T10:58:49;16.83;;;8.57;;
18399;SDS011;9326;49.468;11.008;2023-02-08T11:01:17;17.40;;;11.07;;
18399;SDS011;9326;49.468;11.008;2023-02-08T11:06:37;19.53;;;11.20;;
18399;SDS011;9326;49.468;11.008;2023-02-08T11:09:05;19.17;;;11.83;;
18399;SDS011;9326;49.468;11.008;2023-02-08T11:11:32;17.20;;;10.20;;
18399;SDS011;9326;49.468;11.008;2023-02-08T11:14:07;16.90;;;10.27;;
18399;SDS011;9326;49.468;11.008;2023-02-08T11:16:34;19.47;;;10.60;;
18399;SDS011;9326;49.468;11.008;2023-02-08T11:19:02;15.97;;;9.80;;
18399;SDS011;9326;49.468;11.008;2023-02-08T11:21:32;15.73;;;10.07;;
18399;SDS011;9326;49.468;11.008;2023-02-08T11:24:03;14.07;;;8.50;;
18399;SDS011;9326;49.468;11.008;2023-02-08T11:26:33;15.73;;;10.30;;
18399;SDS011;9326;49.468;11.008;2023-02-08T11:29:02;20.20;;;9.97;;
18399;SDS011;9326;49.468;11.008;2023-02-08T11:31:31;12.17;;;6.87;;
18399;SDS011;9326;49.468;11.008;2023-02-08T11:34:00;17.97;;;10.83;;
18399;SDS011;9326;49.468;11.008;2023-02-08T11:36:28;15.87;;;10.10;;
18399;SDS011;9326;49.468;11.008;2023-02-08T11:38:55;17.00;;;10.13;;
18399;SDS011;9326;49.468;11.008;2023-02-08T11:41:24;12.77;;;8.03;;
18399;SDS011;9326;49.468;11.008;2023-02-08T11:43:53;18.83;;;11.10;;
18399;SDS011;9326;49.468;11.008;2023-02-08T11:46:22;16.37;;;10.40;;
18399;SDS011;9326;49.468;11.008;2023-02-08T11:48:50;11.77;;;7.50;;
18399;SDS011;9326;49.468;11.008;2023-02-08T11:51:23;16.50;;;10.37;;
18399;SDS011;9326;49.468;11.008;2023-02-08T11:53:51;17.67;;;10.77;;
18399;SDS011;9326;49.468;11.008;2023-02-08T11:56:19;14.93;;;9.30;;
18399;SDS011;9326;49.468;11.008;2023-02-08T11:59:04;16.10;;;10.10;;
18399;SDS011;9326;49.468;11.008;2023-02-08T12:01:32;12.57;;;6.87;;
18399;SDS011;9326;49.468;11.008;2023-02-08T12:04:00;12.07;;;7.50;;
18399;SDS011;9326;49.468;11.008;2023-02-08T12:06:41;12.93;;;8.27;;
18399;SDS011;9326;49.468;11.008;2023-02-08T12:09:13;13.20;;;8.60;;
18399;SDS011;9326;49.468;11.008;2023-02-08T12:11:46;13.77;;;7.70;;
18399;SDS011;9326;49.468;11.008;2023-02-08T12:14:19;14.83;;;8.67;;
18399;SDS011;9326;49.468;11.008;2023-02-08T12:16:56;13.33;;;8.70;;
18399;SDS011;9326;49.468;11.008;2023-02-08T12:19:30;17.63;;;9.97;;
18399;SDS011;9326;49.468;11.008;2023-02-08T12:22:04;15.07;;;8.97;;
18399;SDS011;9326;49.468;11.008;2023-02-08T12:24:34;14.83;;;10.27;;
18399;SDS011;9326;49.468;11.008;2023-02-08T12:27:06;15.57;;;8.80;;
18399;SDS011;9326;49.468;11.008;2023-02-08T12:29:43;14.33;;;8.87;;
18399;SDS011;9326;49.468;11.008;2023-02-08T12:32:17;15.17;;;9.10;;
18399;SDS011;9326;49.468;11.008;2023-02-08T12:34:50;16.77;;;9.60;;
18399;SDS011;9326;49.468;11.008;2023-02-08T12:37:24;16.50;;;9.53;;
18399;SDS011;9326;49.468;11.008;2023-02-08T12:40:15;13.83;;;8.60;;
18399;SDS011;9326;49.468;11.008;2023-02-08T12:43:04;6.47;;;4.27;;
18399;SDS011;9326;49.468;11.008;2023-02-08T12:45:52;10.53;;;6.40;;
18399;SDS011;9326;49.468;11.008;2023-02-08T12:48:24;15.80;;;9.77;;
18399;SDS011;9326;49.468;11.008;2023-02-08T12:50:55;13.23;;;8.87;;
18399;SDS011;9326;49.468;11.008;2023-02-08T12:53:26;14.67;;;9.23;;
18399;SDS011;9326;49.468;11.008;2023-02-08T12:55:55;15.43;;;8.83;;
18399;SDS011;9326;49.468;11.008;2023-02-08T12:58:27;15.07;;;9.93;;
18399;SDS011;9326;49.468;11.008;2023-02-08T13:00:56;16.47;;;10.33;;
18399;SDS011;9326;49.468;11.008;2023-02-08T13:03:30;14.67;;;9.87;;
18399;SDS011;9326;49.468;11.008;2023-02-08T13:06:00;14.80;;;9.80;;
18399;SDS011;9326;49.468;11.008;2023-02-08T13:08:30;14.93;;;10.10;;
18399;SDS011;9326;49.468;11.008;2023-02-08T13:11:00;14.03;;;9.33;;
18399;SDS011;9326;49.468;11.008;2023-02-08T13:13:30;17.40;;;9.97;;
18399;SDS011;9326;49.468;11.008;2023-02-08T13:16:02;14.53;;;10.00;;
18399;SDS011;9326;49.468;11.008;2023-02-08T13:18:34;15.77;;;10.27;;
18399;SDS011;9326;49.468;11.008;2023-02-08T13:21:03;16.63;;;10.40;;
18399;SDS011;9326;49.468;11.008;2023-02-08T13:23:33;18.30;;;10.80;;
18399;SDS011;9326;49.468;11.008;2023-02-08T13:26:02;13.77;;;9.23;;
18399;SDS011;9326;49.468;11.008;2023-02-08T13:28:32;16.07;;;11.27;;
18399;SDS011;9326;49.468;11.008;2023-02-08T13:31:01;13.23;;;8.43;;
18399;SDS011;9326;49.468;11.008;2023-02-08T13:33:31;13.00;;;8.93;;
18399;SDS011;9326;49.468;11.008;2023-02-08T13:35:59;16.83;;;10.17;;
18399;SDS011;9326;49.468;11.008;2023-02-08T13:38:27;16.47;;;9.90;;
18399;SDS011;9326;49.468;11.008;2023-02-08T13:41:05;17.63;;;10.13;;
18399;SDS011;9326;49.468;11.008;2023-02-08T13:43:37;12.90;;;8.43;;
18399;SDS011;9326;49.468;11.008;2023-02-08T13:46:07;14.00;;;9.17;;
18399;SDS011;9326;49.468;11.008;2023-02-08T13:48:41;12.60;;;8.80;;
18399;SDS011;9326;49.468;11.008;2023-02-08T13:54:04;13.53;;;8.77;;
18399;SDS011;9326;49.468;11.008;2023-02-08T13:56:39;13.77;;;9.00;;
18399;SDS011;9326;49.468;11.008;2023-02-08T14:04:34;13.57;;;9.47;;
18399;SDS011;9326;49.468;11.008;2023-02-08T14:07:03;11.30;;;8.07;;
18399;SDS011;9326;49.468;11.008;2023-02-08T14:09:38;13.83;;;8.90;;
18399;SDS011;9326;49.468;11.008;2023-02-08T14:12:11;13.07;;;9.07;;
18399;SDS011;9326;49.468;11.008;2023-02-08T14:14:39;14.97;;;10.57;;
18399;SDS011;9326;49.468;11.008;2023-02-08T14:17:10;15.43;;;10.00;;
18399;SDS011;9326;49.468;11.008;2023-02-08T14:19:43;17.83;;;10.83;;
18399;SDS011;9326;49.468;11.008;2023-02-08T14:22:14;19.33;;;10.90;;
18399;SDS011;9326;49.468;11.008;2023-02-08T14:24:43;16.20;;;11.10;;
18399;SDS011;9326;49.468;11.008;2023-02-08T14:27:16;17.93;;;10.63;;
18399;SDS011;9326;49.468;11.008;2023-02-08T14:29:44;17.40;;;11.10;;
18399;SDS011;9326;49.468;11.008;2023-02-08T14:32:21;18.90;;;9.60;;
18399;SDS011;9326;49.468;11.008;2023-02-08T14:34:53;16.77;;;10.53;;
18399;SDS011;9326;49.468;11.008;2023-02-08T14:37:26;18.40;;;10.17;;
18399;SDS011;9326;49.468;11.008;2023-02-08T14:42:54;20.60;;;10.13;;
18399;SDS011;9326;49.468;11.008;2023-02-08T14:45:30;16.00;;;9.87;;
18399;SDS011;9326;49.468;11.008;2023-02-08T14:50:58;17.17;;;11.23;;
18399;SDS011;9326;49.468;11.008;2023-02-08T14:53:28;16.33;;;11.10;;
18399;SDS011;9326;49.468;11.008;2023-02-08T14:55:58;17.53;;;10.63;;
18399;SDS011;9326;49.468;11.008;2023-02-08T14:58:29;17.57;;;11.50;;
18399;SDS011;9326;49.468;11.008;2023-02-08T15:01:00;16.30;;;11.13;;
18399;SDS011;9326;49.468;11.008;2023-02-08T15:03:28;19.87;;;11.53;;
18399;SDS011;9326;49.468;11.008;2023-02-08T15:06:05;15.47;;;10.07;;
18399;SDS011;9326;49.468;11.008;2023-02-08T15:08:33;15.37;;;10.10;;
18399;SDS011;9326;49.468;11.008;2023-02-08T15:11:00;17.97;;;11.23;;
18399;SDS011;9326;49.468;11.008;2023-02-08T15:13:27;18.27;;;11.93;;
18399;SDS011;9326;49.468;11.008;2023-02-08T15:15:55;17.23;;;10.77;;
18399;SDS011;9326;49.468;11.008;2023-02-08T15:18:23;17.10;;;11.17;;
18399;SDS011;9326;49.468;11.008;2023-02-08T15:20:59;16.20;;;10.40;;
18399;SDS011;9326;49.468;11.008;2023-02-08T15:23:28;18.00;;;10.47;;
18399;SDS011;9326;49.468;11.008;2023-02-08T15:25:56;16.73;;;11.00;;
18399;SDS011;9326;49.468;11.008;2023-02-08T15:28:24;14.57;;;9.73;;
18399;SDS011;9326;49.468;11.008;2023-02-08T15:30:53;19.07;;;12.27;;
18399;SDS011;9326;49.468;11.008;2023-02-08T15:33:21;17.17;;;11.50;;
18399;SDS011;9326;49.468;11.008;2023-02-08T15:35:54;17.77;;;10.67;;
18399;SDS011;9326;49.468;11.008;2023-02-08T15:38:21;18.27;;;11.50;;
18399;SDS011;9326;49.468;11.008;2023-02-08T15:41:00;18.90;;;11.50;;
18399;SDS011;9326;49.468;11.008;2023-02-08T15:43:27;17.00;;;11.20;;
18399;SDS011;9326;49.468;11.008;2023-02-08T15:45:54;17.33;;;11.47;;
18399;SDS011;9326;49.468;11.008;2023-02-08T15:48:21;18.33;;;11.70;;
18399;SDS011;9326;49.468;11.008;2023-02-08T15:50:49;18.73;;;11.30;;
18399;SDS011;9326;49.468;11.008;2023-02-08T15:53:16;14.90;;;9.27;;
18399;SDS011;9326;49.468;11.008;2023-02-08T15:55:44;17.03;;;11.20;;
18399;SDS011;9326;49.468;11.008;2023-02-08T15:58:16;16.77;;;11.27;;
18399;SDS011;9326;49.468;11.008;2023-02-08T16:00:44;17.80;;;10.83;;
18399;SDS011;9326;49.468;11.008;2023-02-08T16:03:15;19.00;;;10.73;;
18399;SDS011;9326;49.468;11.008;2023-02-08T16:05:47;19.70;;;11.17;;
18399;SDS011;9326;49.468;11.008;2023-02-08T16:08:17;17.03;;;11.10;;
18399;SDS011;9326;49.468;11.008;2023-02-08T16:10:47;16.00;;;10.37;;
18399;SDS011;9326;49.468;11.008;2023-02-08T16:13:17;16.97;;;11.27;;
18399;SDS011;9326;49.468;11.008;2023-02-08T16:15:47;19.37;;;11.97;;
18399;SDS011;9326;49.468;11.008;2023-02-08T16:18:33;19.87;;;11.93;;
18399;SDS011;9326;49.468;11.008;2023-02-08T16:21:01;18.23;;;10.90;;
18399;SDS011;9326;49.468;11.008;2023-02-08T16:23:29;18.07;;;11.33;;
18399;SDS011;9326;49.468;11.008;2023-02-08T16:25:57;17.27;;;10.70;;
18399;SDS011;9326;49.468;11.008;2023-02-08T16:28:26;18.43;;;10.37;;
18399;SDS011;9326;49.468;11.008;2023-02-08T16:30:54;21.33;;;11.53;;
18399;SDS011;9326;49.468;11.008;2023-02-08T16:33:22;18.57;;;10.87;;
18399;SDS011;9326;49.468;11.008;2023-02-08T16:35:49;18.90;;;10.63;;
18399;SDS011;9326;49.468;11.008;2023-02-08T16:38:17;18.00;;;11.17;;
18399;SDS011;9326;49.468;11.008;2023-02-08T16:40:47;17.23;;;11.57;;
18399;SDS011;9326;49.468;11.008;2023-02-08T16:43:16;17.60;;;10.77;;
18399;SDS011;9326;49.468;11.008;2023-02-08T16:45:44;13.80;;;8.13;;
18399;SDS011;9326;49.468;11.008;2023-02-08T16:48:26;21.17;;;11.37;;
18399;SDS011;9326;49.468;11.008;2023-02-08T16:50:58;19.43;;;11.03;;
18399;SDS011;9326;49.468;11.008;2023-02-08T16:53:26;20.70;;;11.83;;
18399;SDS011;9326;49.468;11.008;2023-02-08T16:55:54;17.93;;;11.73;;
18399;SDS011;9326;49.468;11.008;2023-02-08T16:58:21;19.17;;;12.27;;
18399;SDS011;9326;49.468;11.008;2023-02-08T17:00:50;18.83;;;11.67;;
18399;SDS011;9326;49.468;11.008;2023-02-08T17:03:17;20.67;;;12.93;;
18399;SDS011;9326;49.468;11.008;2023-02-08T17:05:44;19.07;;;12.07;;
18399;SDS011;9326;49.468;11.008;2023-02-08T17:08:13;22.80;;;12.77;;
18399;SDS011;9326;49.468;11.008;2023-02-08T17:10:41;21.57;;;12.50;;
18399;SDS011;9326;49.468;11.008;2023-02-08T17:13:09;17.70;;;12.30;;
18399;SDS011;9326;49.468;11.008;2023-02-08T17:15:36;20.77;;;12.87;;
18399;SDS011;9326;49.468;11.008;2023-02-08T17:18:05;18.87;;;13.03;;
18399;SDS011;9326;49.468;11.008;2023-02-08T17:20:32;22.90;;;12.87;;
18399;SDS011;9326;49.468;11.008;2023-02-08T17:23:00;19.07;;;12.67;;
18399;SDS011;9326;49.468;11.008;2023-02-08T17:25:28;23.10;;;13.50;;
18399;SDS011;9326;49.468;11.008;2023-02-08T17:27:56;21.03;;;12.67;;
18399;SDS011;9326;49.468;11.008;2023-02-08T17:30:27;22.67;;;13.20;;
18399;SDS011;9326;49.468;11.008;2023-02-08T17:32:54;22.43;;;13.53;;
18399;SDS011;9326;49.468;11.008;2023-02-08T17:35:22;18.07;;;12.40;;
18399;SDS011;9326;49.468;11.008;2023-02-08T17:37:50;23.50;;;13.83;;
18399;SDS011;9326;49.468;11.008;2023-02-08T17:40:18;19.20;;;9.30;;
18399;SDS011;9326;49.468;11.008;2023-02-08T17:42:45;24.03;;;13.97;;
18399;SDS011;9326;49.468;11.008;2023-02-08T17:45:12;21.67;;;13.53;;
18399;SDS011;9326;49.468;11.008;2023-02-08T17:47:39;21.70;;;12.80;;
18399;SDS011;9326;49.468;11.008;2023-02-08T17:50:06;25.33;;;13.53;;
18399;SDS011;9326;49.468;11.008;2023-02-08T17:52:35;20.90;;;13.03;;
18399;SDS011;9326;49.468;11.008;2023-02-08T17:55:03;25.47;;;14.00;;
18399;SDS011;9326;49.468;11.008;2023-02-08T17:57:30;22.27;;;13.20;;
18399;SDS011;9326;49.468;11.008;2023-02-08T17:59:57;23.20;;;13.77;;
18399;SDS011;9326;49.468;11.008;2023-02-08T18:02:24;22.27;;;14.00;;
18399;SDS011;9326;49.468;11.008;2023-02-08T18:04:51;21.23;;;13.27;;
18399;SDS011;9326;49.468;11.008;2023-02-08T18:07:18;24.23;;;14.00;;
18399;SDS011;9326;49.468;11.008;2023-02-08T18:09:46;24.73;;;13.50;;
18399;SDS011;9326;49.468;11.008;2023-02-08T18:12:13;25.13;;;13.97;;
18399;SDS011;9326;49.468;11.008;2023-02-08T18:14:40;23.23;;;13.37;;
18399;SDS011;9326;49.468;11.008;2023-02-08T18:17:07;22.40;;;13.97;;
18399;SDS011;9326;49.468;11.008;2023-02-08T18:19:35;22.80;;;14.37;;
18399;SDS011;9326;49.468;11.008;2023-02-08T18:22:02;23.37;;;14.13;;
18399;SDS011;9326;49.468;11.008;2023-02-08T18:24:29;25.10;;;14.53;;
18399;SDS011;9326;49.468;11.008;2023-02-08T18:26:57;23.27;;;13.70;;
18399;SDS011;9326;49.468;11.008;2023-02-08T18:29:24;24.70;;;13.70;;
18399;SDS011;9326;49.468;11.008;2023-02-08T18:31:52;22.87;;;14.47;;
18399;SDS011;9326;49.468;11.008;2023-02-08T18:34:19;26.47;;;15.00;;
18399;SDS011;9326;49.468;11.008;2023-02-08T18:36:46;25.47;;;15.33;;
18399;SDS011;9326;49.468;11.008;2023-02-08T18:39:13;25.67;;;15.27;;
18399;SDS011;9326;49.468;11.008;2023-02-08T18:41:47;26.47;;;15.83;;
18399;SDS011;9326;49.468;11.008;2023-02-08T18:44:15;26.97;;;15.37;;
18399;SDS011;9326;49.468;11.008;2023-02-08T18:46:43;24.80;;;15.47;;
18399;SDS011;9326;49.468;11.008;2023-02-08T18:49:12;25.83;;;16.00;;
18399;SDS011;9326;49.468;11.008;2023-02-08T18:51:39;27.83;;;15.37;;
18399;SDS011;9326;49.468;11.008;2023-02-08T18:54:08;24.60;;;14.83;;
18399;SDS011;9326;49.468;11.008;2023-02-08T18:56:36;24.13;;;15.23;;
18399;SDS011;9326;49.468;11.008;2023-02-08T18:59:03;25.83;;;15.53;;
18399;SDS011;9326;49.468;11.008;2023-02-08T19:01:32;26.63;;;15.73;;
18399;SDS011;9326;49.468;11.008;2023-02-08T19:03:59;24.57;;;15.50;;
18399;SDS011;9326;49.468;11.008;2023-02-08T19:06:27;23.70;;;14.43;;
18399;SDS011;9326;49.468;11.008;2023-02-08T19:08:56;26.77;;;15.33;;
18399;SDS011;9326;49.468;11.008;2023-02-08T19:11:26;29.03;;;15.73;;
18399;SDS011;9326;49.468;11.008;2023-02-08T19:13:55;26.93;;;15.73;;
18399;SDS011;9326;49.468;11.008;2023-02-08T19:16:23;27.17;;;15.87;;
18399;SDS011;9326;49.468;11.008;2023-02-08T19:18:52;30.17;;;15.90;;
18399;SDS011;9326;49.468;11.008;2023-02-08T19:21:20;26.03;;;16.20;;
18399;SDS011;9326;49.468;11.008;2023-02-08T19:23:47;28.23;;;16.00;;
18399;SDS011;9326;49.468;11.008;2023-02-08T19:26:16;24.83;;;15.93;;
18399;SDS011;9326;49.468;11.008;2023-02-08T19:28:44;28.23;;;15.77;;
18399;SDS011;9326;49.468;11.008;2023-02-08T19:31:12;26.30;;;15.47;;
18399;SDS011;9326;49.468;11.008;2023-02-08T19:33:40;27.07;;;16.47;;
18399;SDS011;9326;49.468;11.008;2023-02-08T19:36:09;28.47;;;16.27;;
18399;SDS011;9326;49.468;11.008;2023-02-08T19:38:36;27.77;;;16.50;;
18399;SDS011;9326;49.468;11.008;2023-02-08T19:41:03;29.10;;;17.20;;
18399;SDS011;9326;49.468;11.008;2023-02-08T19:43:30;28.20;;;16.87;;
18399;SDS011;9326;49.468;11.008;2023-02-08T19:45:58;28.37;;;16.30;;
18399;SDS011;9326;49.468;11.008;2023-02-08T19:48:25;25.93;;;16.60;;
18399;SDS011;9326;49.468;11.008;2023-02-08T19:50:52;26.90;;;16.87;;
18399;SDS011;9326;49.468;11.008;2023-02-08T19:53:21;27.03;;;16.80;;